Arboles, CO

3:41 AM MDT on September 18, 2014 (GMT -0600)
Crowbar Creek | Change Station
CLOSE
Current Station
Personal Weather Station
Location: Bayfield, CO
Elevation: 6979 ft
Nearby Weather Stations

Elev 6979 ft 37.21 °N, 107.54 °W | Updated 22 seconds ago

Clear
Clear
45.3 °F
Feels Like 43 °F
N
4.0
Wind Variable Wind from NE
Gusts 4.0 mph

Today
High -- | Low -- °F
--% Chance of Precip.
Yesterday
High -- | Low -- °F
Precip. -- in
6:54 AM 7:12 PM
Waning Crescent, 28% visible
Pressure 29.97 in
Visibility 10.0 miles
Clouds Clear
Windchill 43 °F
Dew Point 42 °F
Humidity 90%
Rainfall 0.00 in
Snow Depth 1 in , 0 in
UV 0 out of 12
Pollen 6.30 out of 12
Air Quality Not available.
Flu Activity Not available.
METAR KDRO 180753Z AUTO 00000KT 10SM CLR 09/08 A3019 RMK AO2 SLP147 T00940078

More Conditions Fewer Conditions

Pressure 29.97 in
Visibility 10.0 miles
Clouds Clear
Windchill 43 °F
Dew Point 42 °F
Humidity 90%
Rainfall 0.00 in
Snow Depth 1 in , 0 in
UV 0 out of 12
Pollen 6.30 out of 12
Air Quality Not available.
Flu Activity Not available.
METAR KDRO 180753Z AUTO 00000KT 10SM CLR 09/08 A3019 RMK AO2 SLP147 T00940078

More Conditions Fewer Conditions

10-Day Weather Forecast

Almanac

Astronomy

Sep. 18, 2014 Rise Set
Actual Time 6:54 AM MDT 7:12 PM MDT
Civil Twilight 6:28 AM MDT 7:38 PM MDT
Nautical Twilight 5:58 AM MDT 8:09 PM MDT
Astronomical Twilight 5:27 AM MDT 8:40 PM MDT
Moon 1:54 AM MDT 4:00 PM MDT
Length of Visible Light 13h 10m
Length of Day
12h 18m
Tomorrow will be 2m 20s shorter.
Waning Crescent, 28% of the Moon is Illuminated
Today
Waning Crescent
Sep 24
New
Oct 1
First Quarter
Oct 8
Full
Oct 15
Last Quarter

Today's Extremes

State Highs State Lows

Community

WunderPhotos

Upload Photos

1,754,312 photos uploaded!

Nearby

Snow Depth

Station Depth Elevation
Bear Lake 0 in 9500 ft
Lost Dog 0 in 9320 ft
Buffalo Park 0 in 9240 ft
Michigan Creek 0 in 10600 ft
Berthoud Summit 0 in 11300 ft

Earthquake Activity

City Distance Mag. Time & Date
No recent earthquake activity has been reported nearby.
Minimum magnitude displayed is 2.5.

Coastal Water Temperatures

Place Temperature
No Stations Reporting

Nearby Weather Stations